createdAt,value
2022-09-12T00:01:16.194Z,16.68
2022-09-12T00:03:43.940Z,16.81
2022-09-12T00:06:17.158Z,16.74
2022-09-12T00:08:46.891Z,17.01
2022-09-12T00:11:14.467Z,16.71
2022-09-12T00:13:42.375Z,16.32
2022-09-12T00:16:15.814Z,16.39
2022-09-12T00:18:46.620Z,16.48
2022-09-12T00:21:16.017Z,16.42
2022-09-12T00:23:43.567Z,16.86
2022-09-12T00:26:11.662Z,16.49
2022-09-12T00:28:42.662Z,16.74
2022-09-12T00:31:11.513Z,16.53
2022-09-12T00:33:39.649Z,16.54
2022-09-12T00:36:07.925Z,16.34
2022-09-12T00:38:41.854Z,16.50
2022-09-12T00:41:11.699Z,16.46
2022-09-12T00:43:40.578Z,16.36
2022-09-12T00:46:09.170Z,16.26
2022-09-12T00:48:38.395Z,16.39
2022-09-12T00:51:06.505Z,16.26
2022-09-12T00:53:34.785Z,16.38
2022-09-12T00:56:13.179Z,16.04
2022-09-12T00:58:43.479Z,15.92
2022-09-12T01:01:11.346Z,16.19
2022-09-12T01:03:41.762Z,16.05
2022-09-12T01:06:11.101Z,16.40
2022-09-12T01:08:38.821Z,16.53
2022-09-12T01:11:06.960Z,16.71
2022-09-12T01:13:37.569Z,16.86
2022-09-12T01:16:08.152Z,16.52
2022-09-12T01:18:40.366Z,16.48
2022-09-12T01:21:15.129Z,16.90
2022-09-12T01:24:01.967Z,16.33
2022-09-12T01:26:38.473Z,16.15
2022-09-12T01:29:13.818Z,16.17
2022-09-12T01:31:43.661Z,16.08
2022-09-12T01:34:15.293Z,16.23
2022-09-12T01:36:48.580Z,16.44
2022-09-12T01:39:18.368Z,16.21
2022-09-12T01:41:52.103Z,16.06
2022-09-12T01:44:24.303Z,16.06
2022-09-12T01:46:54.531Z,16.29
2022-09-12T01:49:25.759Z,16.44
2022-09-12T01:51:55.809Z,16.20
2022-09-12T01:54:26.164Z,16.04
2022-09-12T01:56:57.299Z,15.77
2022-09-12T01:59:26.822Z,15.78
2022-09-12T02:01:57.647Z,16.02
2022-09-12T02:04:26.169Z,16.07
2022-09-12T02:06:55.837Z,15.75
2022-09-12T02:09:26.469Z,15.84
2022-09-12T02:11:57.429Z,15.93
2022-09-12T02:14:25.554Z,15.85
2022-09-12T02:16:54.884Z,16.12
2022-09-12T02:19:25.079Z,16.21
2022-09-12T02:21:54.072Z,16.22
2022-09-12T02:24:21.790Z,16.40
2022-09-12T02:26:52.228Z,16.46
2022-09-12T02:29:19.746Z,16.40
2022-09-12T02:31:48.179Z,16.81
2022-09-12T02:34:19.876Z,16.56
2022-09-12T02:36:49.989Z,16.46
2022-09-12T02:39:20.109Z,16.36
2022-09-12T02:41:47.853Z,16.07
2022-09-12T02:44:17.729Z,16.02
2022-09-12T02:46:46.136Z,15.92
2022-09-12T02:49:14.437Z,16.42
2022-09-12T02:51:42.310Z,16.80
2022-09-12T02:54:11.870Z,16.46
2022-09-12T02:56:41.987Z,16.40
2022-09-12T02:59:09.654Z,16.59
2022-09-12T03:01:44.633Z,16.51
2022-09-12T03:04:19.823Z,16.23
2022-09-12T03:06:52.733Z,16.01
2022-09-12T03:09:23.304Z,15.79
2022-09-12T03:12:02.473Z,16.20
2022-09-12T03:14:38.513Z,16.19
2022-09-12T03:17:09.139Z,16.06
2022-09-12T03:19:41.148Z,15.90
2022-09-12T03:22:10.977Z,15.72
2022-09-12T03:24:41.082Z,15.79
2022-09-12T03:27:28.649Z,15.67
2022-09-12T03:29:56.335Z,15.69
2022-09-12T03:32:38.904Z,15.62
2022-09-12T03:35:07.100Z,15.54
2022-09-12T03:37:35.882Z,15.78
2022-09-12T03:40:05.296Z,15.53
2022-09-12T03:42:32.958Z,15.50
2022-09-12T03:45:00.768Z,15.40
2022-09-12T03:47:31.687Z,15.30
2022-09-12T03:50:02.830Z,15.39
2022-09-12T03:52:36.128Z,15.69
2022-09-12T03:55:06.401Z,15.63
2022-09-12T03:57:34.132Z,15.66
2022-09-12T04:00:02.436Z,15.77
2022-09-12T04:02:31.586Z,15.97
2022-09-12T04:05:01.209Z,15.92
2022-09-12T04:07:29.546Z,16.24
2022-09-12T04:09:58.792Z,15.85
2022-09-12T04:12:27.946Z,15.66
2022-09-12T04:14:57.981Z,15.60
2022-09-12T04:17:28.240Z,15.45
2022-09-12T04:19:57.981Z,15.26
2022-09-12T04:22:25.597Z,15.21
2022-09-12T04:24:56.165Z,15.39
2022-09-12T04:27:24.187Z,15.59
2022-09-12T04:29:57.085Z,15.24
2022-09-12T04:32:24.650Z,15.38
2022-09-12T04:34:53.418Z,15.21
2022-09-12T04:37:23.376Z,15.37
2022-09-12T04:39:51.840Z,14.88
2022-09-12T04:42:22.095Z,15.06
2022-09-12T04:44:49.752Z,15.08
2022-09-12T04:47:19.773Z,15.17
2022-09-12T04:49:47.803Z,15.34
2022-09-12T04:52:15.766Z,15.54
2022-09-12T04:54:43.530Z,15.12
2022-09-12T04:57:14.186Z,14.82
2022-09-12T04:59:46.938Z,15.04
2022-09-12T05:02:15.241Z,15.06
2022-09-12T05:04:44.270Z,15.12
2022-09-12T05:07:13.680Z,14.87
2022-09-12T05:09:41.603Z,15.21
2022-09-12T05:12:09.500Z,15.65
2022-09-12T05:14:37.177Z,15.32
2022-09-12T05:17:06.045Z,15.25
2022-09-12T05:19:33.989Z,15.41
2022-09-12T05:22:06.733Z,15.24
2022-09-12T05:24:36.490Z,15.64
2022-09-12T05:27:04.824Z,15.44
2022-09-12T05:29:32.500Z,15.43
2022-09-12T05:32:00.117Z,15.16
2022-09-12T05:34:28.083Z,15.52
2022-09-12T05:36:55.952Z,15.75
2022-09-12T05:39:27.085Z,15.74
2022-09-12T05:41:55.233Z,15.99
2022-09-12T05:44:23.167Z,15.94
2022-09-12T05:46:51.578Z,16.02
2022-09-12T05:49:21.915Z,15.96
2022-09-12T05:51:52.137Z,15.98
2022-09-12T05:54:21.199Z,15.66
2022-09-12T05:56:54.186Z,16.00
2022-09-12T05:59:28.323Z,16.29
2022-09-12T06:01:59.054Z,16.34
2022-09-12T06:04:28.165Z,16.55
2022-09-12T06:06:56.436Z,16.42
2022-09-12T06:09:25.787Z,16.32
2022-09-12T06:11:55.987Z,16.06
2022-09-12T06:14:23.536Z,15.78
2022-09-12T06:16:51.230Z,15.70
2022-09-12T06:19:19.381Z,15.86
2022-09-12T06:21:48.382Z,15.68
2022-09-12T06:24:21.482Z,15.57
2022-09-12T06:26:53.283Z,15.51
2022-09-12T06:29:22.891Z,15.34
2022-09-12T06:31:52.245Z,15.48
2022-09-12T06:34:20.058Z,15.39
2022-09-12T06:36:48.769Z,15.80
2022-09-12T06:39:17.250Z,15.79
2022-09-12T06:41:46.983Z,15.87
2022-09-12T06:44:16.197Z,15.86
2022-09-12T06:46:48.061Z,16.43
2022-09-12T06:49:15.878Z,16.20
2022-09-12T06:51:44.623Z,16.00
2022-09-12T06:54:16.851Z,16.17
2022-09-12T06:56:45.206Z,16.20
2022-09-12T06:59:12.896Z,16.15
2022-09-12T07:01:41.772Z,16.45
2022-09-12T07:04:14.393Z,16.69
2022-09-12T07:06:43.043Z,16.82
2022-09-12T07:09:11.866Z,17.32
2022-09-12T07:11:42.554Z,17.63
2022-09-12T07:14:22.743Z,17.37
2022-09-12T07:16:53.306Z,17.93
2022-09-12T07:19:24.203Z,17.83
2022-09-12T07:21:58.751Z,18.02
2022-09-12T07:24:26.752Z,17.79
2022-09-12T07:26:54.820Z,18.47
2022-09-12T07:29:38.177Z,18.73
2022-09-12T07:32:06.633Z,18.28
2022-09-12T07:34:38.812Z,18.69
2022-09-12T07:37:07.378Z,18.19
2022-09-12T07:39:36.579Z,18.02
2022-09-12T07:42:04.578Z,18.44
2022-09-12T07:44:32.610Z,17.91
2022-09-12T07:47:03.410Z,18.74
2022-09-12T07:49:39.092Z,19.18
2022-09-12T07:52:09.281Z,18.73
2022-09-12T07:54:37.404Z,19.22
2022-09-12T07:57:05.129Z,19.67
2022-09-12T07:59:51.357Z,19.37
2022-09-12T08:02:19.589Z,19.74
2022-09-12T08:04:49.574Z,19.68
2022-09-12T08:07:18.438Z,20.09
2022-09-12T08:09:48.573Z,20.24
2022-09-12T08:12:20.317Z,20.43
2022-09-12T08:14:48.400Z,20.67
2022-09-12T08:17:16.014Z,20.75
2022-09-12T08:19:48.560Z,20.59
2022-09-12T08:22:18.597Z,21.17
2022-09-12T08:24:46.223Z,20.84
2022-09-12T08:27:30.149Z,20.97
2022-09-12T08:30:10.334Z,21.15
2022-09-12T08:32:40.402Z,21.51
2022-09-12T08:35:08.953Z,21.16
2022-09-12T08:37:39.173Z,21.03
2022-09-12T08:40:08.542Z,20.97
2022-09-12T08:42:40.564Z,21.15
2022-09-12T08:45:13.233Z,21.42
2022-09-12T08:47:42.133Z,21.54
2022-09-12T08:50:13.047Z,21.76
2022-09-12T08:52:50.021Z,21.62
2022-09-12T08:55:31.070Z,22.05
2022-09-12T08:58:00.599Z,21.62
2022-09-12T09:00:31.699Z,22.11
2022-09-12T09:03:18.860Z,22.76
2022-09-12T09:05:48.172Z,22.48
2022-09-12T09:08:30.949Z,22.44
2022-09-12T09:11:01.345Z,22.41
2022-09-12T09:13:50.226Z,22.31
2022-09-12T09:16:19.132Z,22.71
2022-09-12T09:18:47.476Z,23.22
2022-09-12T09:21:16.705Z,22.39
2022-09-12T09:23:45.257Z,22.99
2022-09-12T09:26:16.726Z,22.90
2022-09-12T09:28:47.781Z,22.96
2022-09-12T09:31:15.771Z,23.10
2022-09-12T09:33:43.920Z,23.12
2022-09-12T09:36:14.961Z,22.84
2022-09-12T09:38:44.945Z,23.13
2022-09-12T09:41:36.432Z,23.34
2022-09-12T09:46:35.928Z,22.50
2022-09-12T09:49:04.308Z,23.86
2022-09-12T09:51:36.072Z,23.57
2022-09-12T09:54:07.925Z,23.46
2022-09-12T09:56:37.472Z,23.56
2022-09-12T09:59:13.120Z,23.25
2022-09-12T10:01:49.881Z,23.17
2022-09-12T10:04:21.283Z,23.56
2022-09-12T10:06:49.498Z,23.36
2022-09-12T10:09:21.603Z,23.51
2022-09-12T10:11:54.220Z,24.23
2022-09-12T10:14:34.978Z,24.46
2022-09-12T10:17:03.663Z,24.04
2022-09-12T10:19:35.064Z,24.15
2022-09-12T10:22:05.531Z,24.30
2022-09-12T10:24:34.324Z,24.34
2022-09-12T10:27:08.659Z,24.41
2022-09-12T10:29:37.513Z,24.52
2022-09-12T10:32:05.811Z,23.98
2022-09-12T10:34:35.935Z,24.46
2022-09-12T10:37:05.784Z,24.98
2022-09-12T10:39:37.069Z,24.92
2022-09-12T10:42:10.940Z,24.77
2022-09-12T10:44:40.357Z,24.43
2022-09-12T10:47:37.653Z,24.52
2022-09-12T10:50:22.897Z,24.02
2022-09-12T10:52:51.161Z,25.03
2022-09-12T10:55:19.625Z,24.37
2022-09-12T10:58:00.895Z,24.26
2022-09-12T11:00:30.567Z,25.09
2022-09-12T11:03:06.882Z,23.77
2022-09-12T11:05:37.665Z,24.56
2022-09-12T11:08:09.181Z,25.19
2022-09-12T11:10:43.752Z,25.23
2022-09-12T11:13:16.288Z,25.51
2022-09-12T11:15:58.344Z,25.11
2022-09-12T11:18:32.660Z,25.13
2022-09-12T11:21:11.374Z,24.92
2022-09-12T11:24:05.452Z,24.78
2022-09-12T11:26:36.135Z,24.78
2022-09-12T11:29:06.505Z,25.61
2022-09-12T11:31:41.778Z,25.94
2022-09-12T11:34:10.218Z,26.21
2022-09-12T11:36:39.169Z,26.38
2022-09-12T11:39:10.818Z,25.61
2022-09-12T11:41:38.862Z,26.84
2022-09-12T11:44:12.943Z,26.77
2022-09-12T11:46:51.097Z,26.83
2022-09-12T11:49:23.816Z,26.69
2022-09-12T11:51:52.619Z,27.03
2022-09-12T11:54:22.792Z,26.39
2022-09-12T11:56:51.247Z,26.75
2022-09-12T11:59:21.921Z,26.62
2022-09-12T12:01:52.024Z,27.62
2022-09-12T12:04:22.084Z,28.02
2022-09-12T12:06:51.036Z,28.00
2022-09-12T12:09:19.198Z,26.52
2022-09-12T12:11:49.272Z,27.21
2022-09-12T12:14:17.743Z,26.93
2022-09-12T12:16:45.573Z,27.25
2022-09-12T12:19:26.086Z,26.69
2022-09-12T12:21:53.679Z,27.83
2022-09-12T12:24:21.705Z,28.86
2022-09-12T12:26:57.399Z,27.90
2022-09-12T12:29:41.542Z,27.56
2022-09-12T12:32:19.898Z,27.57
2022-09-12T12:34:49.446Z,27.55
2022-09-12T12:37:36.236Z,27.53
2022-09-12T12:40:09.044Z,28.59
2022-09-12T12:43:09.393Z,27.94
2022-09-12T12:46:10.394Z,27.91
2022-09-12T12:48:59.029Z,26.92
2022-09-12T12:51:47.007Z,27.20
2022-09-12T12:54:33.045Z,27.22
2022-09-12T12:57:08.881Z,27.55
2022-09-12T12:59:36.561Z,27.97
2022-09-12T13:02:05.982Z,27.76
2022-09-12T13:04:34.100Z,27.20
2022-09-12T13:07:07.970Z,28.10
2022-09-12T13:09:41.156Z,28.47
2022-09-12T13:12:11.567Z,28.93
2022-09-12T13:14:51.619Z,29.20
2022-09-12T13:17:27.148Z,27.97
2022-09-12T13:20:16.805Z,28.81
2022-09-12T13:22:45.035Z,29.76
2022-09-12T13:25:28.164Z,30.29
2022-09-12T13:27:59.296Z,30.15
2022-09-12T13:30:30.189Z,30.05
2022-09-12T13:33:00.434Z,30.92
2022-09-12T13:35:31.465Z,30.97
2022-09-12T13:38:03.692Z,29.62
2022-09-12T13:40:32.417Z,28.95
2022-09-12T13:43:10.710Z,30.30
2022-09-12T13:45:40.425Z,30.34
2022-09-12T13:48:08.206Z,28.74
2022-09-12T13:50:38.716Z,28.20
2022-09-12T13:53:09.321Z,29.26
2022-09-12T13:55:37.665Z,30.17
2022-09-12T13:58:08.283Z,29.24
2022-09-12T14:00:36.090Z,29.76
2022-09-12T14:03:21.255Z,30.04
2022-09-12T14:05:57.536Z,30.48
2022-09-12T14:08:28.177Z,29.56
2022-09-12T14:10:56.389Z,31.00
2022-09-12T14:13:25.591Z,30.77
2022-09-12T14:15:53.677Z,31.58
2022-09-12T14:18:23.969Z,31.81
2022-09-12T14:20:52.190Z,31.05
2022-09-12T14:23:21.457Z,31.27
2022-09-12T14:25:50.396Z,31.08
2022-09-12T14:28:23.330Z,30.85
2022-09-12T14:31:01.648Z,30.97
2022-09-12T14:33:29.573Z,30.94
2022-09-12T14:36:08.862Z,30.78
2022-09-12T14:38:40.077Z,30.16
2022-09-12T14:41:09.780Z,29.79
2022-09-12T14:43:38.128Z,30.37
2022-09-12T14:49:00.026Z,31.30
2022-09-12T14:51:28.410Z,31.29
2022-09-12T14:53:56.422Z,30.18
2022-09-12T14:56:38.684Z,31.16
2022-09-12T14:59:22.552Z,31.61
2022-09-12T15:01:50.553Z,29.71
2022-09-12T15:04:33.044Z,30.96
2022-09-12T15:07:00.659Z,31.34
2022-09-12T15:09:28.378Z,30.88
2022-09-12T15:11:57.478Z,31.67
2022-09-12T15:14:25.045Z,31.74
2022-09-12T15:16:52.693Z,31.84
2022-09-12T15:19:22.740Z,31.77
2022-09-12T15:22:03.095Z,30.80
2022-09-12T15:24:33.062Z,31.10
2022-09-12T15:27:02.139Z,29.43
2022-09-12T15:29:29.801Z,30.59
2022-09-12T15:31:58.085Z,31.13
2022-09-12T15:34:25.826Z,31.38
2022-09-12T15:36:53.390Z,31.45
2022-09-12T15:39:21.971Z,31.06
2022-09-12T15:41:49.737Z,30.29
2022-09-12T15:44:23.629Z,30.07
2022-09-12T15:46:54.336Z,30.30
2022-09-12T15:49:24.362Z,30.47
2022-09-12T15:51:51.915Z,30.72
2022-09-12T15:54:22.789Z,29.20
2022-09-12T15:56:51.725Z,30.19
2022-09-12T15:59:20.673Z,29.92
2022-09-12T16:01:50.272Z,30.06
2022-09-12T16:04:20.649Z,29.59
2022-09-12T16:06:48.347Z,29.72
2022-09-12T16:09:17.694Z,29.65
2022-09-12T16:11:45.894Z,29.96
2022-09-12T16:14:14.242Z,29.22
2022-09-12T16:16:43.334Z,29.58
2022-09-12T16:19:14.639Z,29.67
2022-09-12T16:21:42.197Z,28.97
2022-09-12T16:24:09.747Z,29.47
2022-09-12T16:26:37.404Z,29.14
2022-09-12T16:29:09.422Z,29.30
2022-09-12T16:31:38.418Z,29.18
2022-09-12T16:34:07.593Z,28.27
2022-09-12T16:36:35.251Z,28.21
2022-09-12T16:39:02.831Z,28.59
2022-09-12T16:41:30.431Z,28.39
2022-09-12T16:44:00.985Z,28.43
2022-09-12T16:46:31.749Z,28.31
2022-09-12T16:49:01.658Z,28.30
2022-09-12T16:51:32.764Z,28.28
2022-09-12T16:54:01.653Z,28.36
2022-09-12T16:56:29.286Z,28.36
2022-09-12T16:58:59.943Z,28.11
2022-09-12T17:01:32.469Z,27.87
2022-09-12T17:04:07.093Z,27.77
2022-09-12T17:06:38.011Z,27.82
2022-09-12T17:09:05.636Z,27.76
2022-09-12T17:11:38.193Z,27.70
2022-09-12T17:14:07.294Z,27.60
2022-09-12T17:16:35.581Z,27.54
2022-09-12T17:19:05.374Z,27.46
2022-09-12T17:21:33.446Z,27.36
2022-09-12T17:24:03.399Z,27.27
2022-09-12T17:26:31.654Z,27.22
2022-09-12T17:29:02.192Z,25.74
2022-09-12T17:31:29.826Z,26.87
2022-09-12T17:33:58.563Z,26.67
2022-09-12T17:36:26.609Z,26.31
2022-09-12T17:38:54.560Z,26.14
2022-09-12T17:41:27.694Z,26.02
2022-09-12T17:43:56.655Z,25.95
2022-09-12T17:46:24.454Z,25.92
2022-09-12T17:48:55.127Z,25.84
2022-09-12T17:51:25.516Z,25.72
2022-09-12T17:53:59.663Z,25.79
2022-09-12T17:56:35.503Z,25.51
2022-09-12T17:59:03.146Z,25.42
2022-09-12T18:01:49.273Z,25.33
2022-09-12T18:04:17.059Z,24.92
2022-09-12T18:06:48.188Z,24.98
2022-09-12T18:09:19.979Z,24.43
2022-09-12T18:11:55.472Z,24.15
2022-09-12T18:14:23.260Z,24.00
2022-09-12T18:16:54.346Z,23.91
2022-09-12T18:19:23.413Z,23.57
2022-09-12T18:21:51.392Z,23.19
2022-09-12T18:24:23.765Z,23.70
2022-09-12T18:26:53.006Z,23.95
2022-09-12T18:29:21.192Z,23.93
2022-09-12T18:31:48.838Z,23.63
2022-09-12T18:34:16.690Z,23.43
2022-09-12T18:36:45.133Z,23.41
2022-09-12T18:39:14.056Z,23.74
2022-09-12T18:41:42.046Z,23.76
2022-09-12T18:44:12.814Z,23.74
2022-09-12T18:46:44.339Z,23.69
2022-09-12T18:49:12.606Z,23.60
2022-09-12T18:51:41.875Z,23.58
2022-09-12T18:54:12.745Z,23.57
2022-09-12T18:56:43.509Z,23.51
2022-09-12T18:59:15.026Z,23.47
2022-09-12T19:01:44.826Z,23.46
2022-09-12T19:04:13.360Z,22.68
2022-09-12T19:06:42.180Z,22.05
2022-09-12T19:09:10.409Z,22.69
2022-09-12T19:11:48.836Z,22.78
2022-09-12T19:14:18.407Z,22.76
2022-09-12T19:16:48.827Z,22.10
2022-09-12T19:19:19.381Z,22.47
2022-09-12T19:21:46.989Z,22.09
2022-09-12T19:24:16.296Z,21.82
2022-09-12T19:26:43.931Z,22.07
2022-09-12T19:29:11.612Z,22.51
2022-09-12T19:31:40.608Z,22.52
2022-09-12T19:34:09.508Z,22.57
2022-09-12T19:36:45.480Z,22.31
2022-09-12T19:39:14.357Z,21.60
2022-09-12T19:41:42.557Z,21.45
2022-09-12T19:44:10.490Z,21.58
2022-09-12T19:46:39.770Z,21.07
2022-09-12T19:49:09.123Z,21.52
2022-09-12T19:51:36.915Z,21.54
2022-09-12T19:54:04.734Z,21.76
2022-09-12T19:56:32.910Z,21.40
2022-09-12T19:59:00.827Z,21.45
2022-09-12T20:01:29.492Z,20.76
2022-09-12T20:03:58.059Z,20.76
2022-09-12T20:06:27.732Z,20.95
2022-09-12T20:09:00.487Z,21.26
2022-09-12T20:11:28.095Z,21.22
2022-09-12T20:13:55.842Z,21.65
2022-09-12T20:16:30.021Z,19.70
2022-09-12T20:18:58.481Z,21.47
2022-09-12T20:21:31.623Z,20.76
2022-09-12T20:24:04.882Z,21.29
2022-09-12T20:26:34.674Z,21.67
2022-09-12T20:29:02.922Z,21.75
2022-09-12T20:31:31.994Z,21.66
2022-09-12T20:34:05.388Z,21.34
2022-09-12T20:36:34.940Z,21.37
2022-09-12T20:39:03.473Z,20.74
2022-09-12T20:41:35.477Z,20.19
2022-09-12T20:44:03.524Z,20.20
2022-09-12T20:46:31.444Z,20.21
2022-09-12T20:48:59.539Z,20.10
2022-09-12T20:51:29.739Z,20.26
2022-09-12T20:54:03.553Z,19.75
2022-09-12T20:56:31.845Z,19.87
2022-09-12T20:59:01.721Z,19.72
2022-09-12T21:01:29.758Z,19.50
2022-09-12T21:03:57.468Z,19.51
2022-09-12T21:06:25.006Z,19.61
2022-09-12T21:08:52.607Z,19.44
2022-09-12T21:11:22.191Z,19.66
2022-09-12T21:13:50.511Z,19.01
2022-09-12T21:16:18.803Z,19.40
2022-09-12T21:18:46.404Z,19.54
2022-09-12T21:21:14.956Z,19.31
2022-09-12T21:23:47.913Z,19.53
2022-09-12T21:26:15.885Z,19.13
2022-09-12T21:28:46.195Z,18.87
2022-09-12T21:31:14.470Z,18.82
2022-09-12T21:33:43.414Z,19.34
2022-09-12T21:36:11.732Z,19.27
2022-09-12T21:38:39.780Z,19.38
2022-09-12T21:41:07.792Z,19.49
2022-09-12T21:43:35.481Z,19.29
2022-09-12T21:46:05.117Z,19.19
2022-09-12T21:48:37.267Z,19.03
2022-09-12T21:51:05.707Z,18.61
2022-09-12T21:53:33.575Z,19.12
2022-09-12T21:56:15.242Z,18.87
2022-09-12T21:58:43.129Z,19.08
2022-09-12T22:01:13.472Z,19.40
2022-09-12T22:03:43.242Z,19.53
2022-09-12T22:06:14.166Z,18.88
2022-09-12T22:08:46.092Z,18.79
2022-09-12T22:11:13.933Z,19.02
2022-09-12T22:13:42.840Z,18.88
2022-09-12T22:16:10.747Z,19.34
2022-09-12T22:18:42.198Z,19.19
2022-09-12T22:21:12.318Z,19.19
2022-09-12T22:23:57.467Z,17.54
2022-09-12T22:26:25.489Z,18.58
2022-09-12T22:28:55.464Z,18.77
2022-09-12T22:31:23.183Z,18.59
2022-09-12T22:33:52.141Z,18.64
2022-09-12T22:36:19.789Z,18.28
2022-09-12T22:38:51.481Z,18.34
2022-09-12T22:41:19.002Z,18.04
2022-09-12T22:43:46.717Z,17.90
2022-09-12T22:46:16.306Z,18.32
2022-09-12T22:48:44.320Z,18.39
2022-09-12T22:51:14.474Z,18.69
2022-09-12T22:53:42.076Z,18.08
2022-09-12T22:56:10.395Z,18.35
2022-09-12T22:58:38.202Z,18.33
2022-09-12T23:01:06.540Z,16.57
2022-09-12T23:03:34.366Z,17.97
2022-09-12T23:06:02.380Z,18.23
2022-09-12T23:08:31.585Z,17.89
2022-09-12T23:11:02.826Z,17.82
2022-09-12T23:13:31.055Z,17.81
2022-09-12T23:15:59.178Z,18.05
2022-09-12T23:18:26.767Z,17.95
2022-09-12T23:20:58.183Z,17.97
2022-09-12T23:23:26.642Z,17.79
2022-09-12T23:26:06.159Z,17.98
2022-09-12T23:28:34.055Z,18.29
2022-09-12T23:31:03.130Z,18.37
2022-09-12T23:33:31.166Z,18.39
2022-09-12T23:35:59.853Z,18.65
2022-09-12T23:38:27.518Z,18.59
2022-09-12T23:40:59.951Z,18.64
2022-09-12T23:43:29.315Z,18.63
2022-09-12T23:45:57.010Z,18.86
2022-09-12T23:48:26.173Z,18.65
2022-09-12T23:50:54.133Z,19.06
2022-09-12T23:53:22.095Z,19.12
2022-09-12T23:55:49.964Z,18.85
2022-09-12T23:58:19.765Z,18.58
